createdAt,value
2023-05-25T00:00:29.817Z,52.2
2023-05-25T00:05:47.830Z,52.3
2023-05-25T00:11:05.855Z,52.3
2023-05-25T00:16:24.478Z,52.2
2023-05-25T00:21:42.681Z,52.3
2023-05-25T00:27:01.078Z,51.6
2023-05-25T00:32:19.455Z,52.7
2023-05-25T00:37:37.630Z,52.3
2023-05-25T00:42:56.030Z,53
2023-05-25T00:48:14.592Z,52.3
2023-05-25T00:53:32.813Z,52.8
2023-05-25T00:58:51.430Z,52.4
2023-05-25T01:04:10.219Z,51.8
2023-05-25T01:09:28.630Z,52.6
2023-05-25T01:14:47.758Z,52.5
2023-05-25T01:20:12.804Z,52.2
2023-05-25T01:25:31.409Z,51.8
2023-05-25T01:30:49.655Z,51.9
2023-05-25T01:36:08.148Z,52
2023-05-25T01:41:26.523Z,51.6
2023-05-25T01:46:44.675Z,52
2023-05-25T01:52:03.033Z,52.9
2023-05-25T01:57:21.079Z,52.6
2023-05-25T02:02:39.481Z,52.8
2023-05-25T02:07:57.825Z,52.5
2023-05-25T02:13:16.120Z,52.7
2023-05-25T02:18:34.085Z,53.6
2023-05-25T02:23:52.624Z,52.8
2023-05-25T02:29:11.024Z,52.7
2023-05-25T02:34:29.682Z,52.9
2023-05-25T02:39:47.645Z,52.7
2023-05-25T02:45:05.717Z,52.7
2023-05-25T02:50:24.044Z,53.4
2023-05-25T02:55:42.888Z,52.8
2023-05-25T03:01:01.213Z,52.9
2023-05-25T03:06:19.465Z,53.6
2023-05-25T03:11:37.829Z,53.2
2023-05-25T03:16:56.320Z,52.6
2023-05-25T03:22:14.289Z,53
2023-05-25T03:27:32.402Z,52.9
2023-05-25T03:32:50.902Z,53.6
2023-05-25T03:38:09.263Z,53.6
2023-05-25T03:43:11.741Z,53.4
2023-05-25T03:48:30.071Z,52.6
2023-05-25T03:53:48.226Z,53.2
2023-05-25T03:59:06.349Z,52.6
2023-05-25T04:04:24.874Z,52.5
2023-05-25T04:09:43.012Z,52.5
2023-05-25T04:15:01.324Z,53.1
2023-05-25T04:20:19.795Z,52.4
2023-05-25T04:25:38.361Z,52.4
2023-05-25T04:30:56.689Z,52.4
2023-05-25T04:36:15.049Z,53.1
2023-05-25T04:41:33.389Z,52.6
2023-05-25T04:46:54.326Z,50
2023-05-25T04:52:14.670Z,49.9
2023-05-25T04:57:32.663Z,49.9
2023-05-25T05:02:51.475Z,49.4
2023-05-25T05:08:10.055Z,50.3
2023-05-25T05:13:28.218Z,50.2
2023-05-25T05:18:46.189Z,51.4
2023-05-25T05:24:04.564Z,51
2023-05-25T05:29:22.695Z,51.3
2023-05-25T05:34:44.213Z,51
2023-05-25T05:40:02.727Z,51.1
2023-05-25T05:45:21.334Z,51.9
2023-05-25T05:50:42.721Z,52
2023-05-25T05:55:56.552Z,51.3
2023-05-25T06:01:15.058Z,51.4
2023-05-25T06:06:17.652Z,51.6
2023-05-25T06:11:36.382Z,52
2023-05-25T06:16:54.982Z,51.6
2023-05-25T06:22:13.153Z,51.8
2023-05-25T06:27:31.547Z,52.2
2023-05-25T06:32:50.331Z,52.3
2023-05-25T06:38:08.992Z,51.6
2023-05-25T06:43:27.682Z,52.4
2023-05-25T06:48:46.396Z,52.3
2023-05-25T06:54:04.659Z,51.9
2023-05-25T06:59:23.411Z,52.4
2023-05-25T07:04:47.381Z,52.1
2023-05-25T07:10:05.668Z,52
2023-05-25T07:15:24.244Z,51.6
2023-05-25T07:20:42.920Z,52.4
2023-05-25T07:26:05.958Z,51.9
2023-05-25T07:31:25.128Z,51
2023-05-25T07:36:27.721Z,51
2023-05-25T07:41:46.166Z,51.3
2023-05-25T07:47:05.017Z,50.7
2023-05-25T07:52:23.778Z,51.7
2023-05-25T07:57:41.753Z,51.3
2023-05-25T08:03:00.996Z,50.7
2023-05-25T08:08:19.532Z,50.4
2023-05-25T08:13:37.860Z,51.1
2023-05-25T08:18:56.478Z,50.4
2023-05-25T08:24:15.120Z,50.7
2023-05-25T08:29:36.330Z,50.9
2023-05-25T08:34:39.069Z,49.9
2023-05-25T08:40:03.682Z,50.8
2023-05-25T08:45:41.933Z,50.8
2023-05-25T08:51:11.630Z,50.9
2023-05-25T08:56:30.426Z,50.4
2023-05-25T09:01:48.714Z,50.7
2023-05-25T09:07:11.952Z,51.2
2023-05-25T09:12:30.356Z,50.7
2023-05-25T09:17:48.818Z,51.5
2023-05-25T09:23:09.046Z,50.5
2023-05-25T09:28:28.425Z,51.5
2023-05-25T09:33:46.820Z,50.7
2023-05-25T09:39:05.794Z,50.9
2023-05-25T09:44:24.171Z,50.7
2023-05-25T09:49:42.305Z,50.9
2023-05-25T09:55:00.645Z,51.3
2023-05-25T10:00:18.666Z,50.9
2023-05-25T10:05:36.798Z,51.3
2023-05-25T10:10:55.199Z,50.9
2023-05-25T10:15:58.076Z,50.6
2023-05-25T10:21:02.525Z,50.6
2023-05-25T10:26:21.416Z,50.9
2023-05-25T10:31:39.569Z,50.7
2023-05-25T10:36:57.954Z,50.6
2023-05-25T10:42:16.186Z,50.7
2023-05-25T10:47:34.729Z,51.4
2023-05-25T10:52:53.241Z,51.2
2023-05-25T10:58:11.704Z,51.9
2023-05-25T11:03:29.863Z,51.8
2023-05-25T11:08:48.392Z,51.8
2023-05-25T11:14:06.752Z,51.2
2023-05-25T11:19:25.342Z,51.8
2023-05-25T11:24:43.258Z,51.9
2023-05-25T11:30:01.539Z,52.4
2023-05-25T11:35:19.845Z,51.7
2023-05-25T11:40:41.179Z,51.9
2023-05-25T11:45:59.736Z,51.4
2023-05-25T11:51:17.950Z,52.6
2023-05-25T11:56:36.898Z,51
2023-05-25T12:01:55.243Z,52
2023-05-25T12:07:14.602Z,51.5
2023-05-25T12:12:32.690Z,50.9
2023-05-25T12:17:51.104Z,50.9
2023-05-25T12:23:12.488Z,51.7
2023-05-25T12:28:31.056Z,50.8
2023-05-25T12:33:50.641Z,49.9
2023-05-25T12:39:09.051Z,49.6
2023-05-25T12:44:27.452Z,49.2
2023-05-25T12:49:45.939Z,49.6
2023-05-25T12:55:04.110Z,49.6
2023-05-25T13:00:22.566Z,48.7
2023-05-25T13:05:41.211Z,48.6
2023-05-25T13:10:59.860Z,48.8
2023-05-25T13:16:18.078Z,48.4
2023-05-25T13:21:36.723Z,48.3
2023-05-25T13:26:57.840Z,47.1
2023-05-25T13:32:16.636Z,46.9
2023-05-25T13:37:34.883Z,45.8
2023-05-25T13:42:53.432Z,46.5
2023-05-25T13:48:12.007Z,47.2
2023-05-25T13:53:30.491Z,46.5
2023-05-25T13:58:48.900Z,45.7
2023-05-25T14:04:07.393Z,45.4
2023-05-25T14:09:26.737Z,45.9
2023-05-25T14:14:45.252Z,47
2023-05-25T14:20:04.200Z,45.4
2023-05-25T14:25:22.522Z,46.4
2023-05-25T14:30:40.975Z,45.7
2023-05-25T14:35:59.305Z,46.9
2023-05-25T14:41:18.075Z,46.1
2023-05-25T14:46:36.703Z,44.6
2023-05-25T14:51:55.127Z,46.3
2023-05-25T14:57:13.350Z,45.2
2023-05-25T15:02:32.452Z,45.7
2023-05-25T15:07:51.264Z,46.3
2023-05-25T15:13:13.429Z,46.4
2023-05-25T15:18:31.833Z,45.8
2023-05-25T15:23:50.148Z,44.6
2023-05-25T15:29:08.705Z,46.9
2023-05-25T15:34:27.069Z,48.1
2023-05-25T15:39:49.623Z,50.6
2023-05-25T15:45:08.062Z,50.7
2023-05-25T15:50:26.829Z,50.9
2023-05-25T15:55:46.047Z,49.9
2023-05-25T16:01:04.917Z,50
2023-05-25T16:06:28.965Z,50.7
2023-05-25T16:11:47.086Z,49.7
2023-05-25T16:17:05.365Z,50.6
2023-05-25T16:22:23.538Z,51.5
2023-05-25T16:27:42.697Z,51.4
2023-05-25T16:33:01.663Z,50.8
2023-05-25T16:38:20.425Z,52.8
2023-05-25T16:43:38.984Z,52.2
2023-05-25T16:48:57.688Z,51.4
2023-05-25T16:54:15.671Z,51.1
2023-05-25T16:59:33.842Z,51.5
2023-05-25T17:04:51.829Z,52
2023-05-25T17:10:10.207Z,51.8
2023-05-25T17:15:28.576Z,51.9
2023-05-25T17:20:46.907Z,51.2
2023-05-25T17:26:05.298Z,51.1
2023-05-25T17:31:23.843Z,50.5
2023-05-25T17:36:42.264Z,49.4
2023-05-25T17:42:00.684Z,49.7
2023-05-25T17:47:19.032Z,50.5
2023-05-25T17:52:37.318Z,50.8
2023-05-25T17:57:55.947Z,51.1
2023-05-25T18:03:14.807Z,51.6
2023-05-25T18:08:33.284Z,51.8
2023-05-25T18:13:51.950Z,51.9
2023-05-25T18:19:10.056Z,51.4
2023-05-25T18:24:28.489Z,51.4
2023-05-25T18:29:46.686Z,52.1
2023-05-25T18:35:05.300Z,52.4
2023-05-25T18:40:07.929Z,51.9
2023-05-25T18:45:26.614Z,51.1
2023-05-25T18:50:45.131Z,51.6
2023-05-25T18:56:03.714Z,51.7
2023-05-25T19:01:22.179Z,52.8
2023-05-25T19:06:40.665Z,52.6
2023-05-25T19:11:59.029Z,53.2
2023-05-25T19:17:17.398Z,53.9
2023-05-25T19:22:35.777Z,53.5
2023-05-25T19:27:54.196Z,53.4
2023-05-25T19:33:12.902Z,54.9
2023-05-25T19:38:42.829Z,54.1
2023-05-25T19:44:01.405Z,53.4
2023-05-25T19:49:19.990Z,54.4
2023-05-25T19:54:41.466Z,53.5
2023-05-25T19:59:59.662Z,54
2023-05-25T20:05:18.220Z,54.8
2023-05-25T20:10:36.754Z,53.3
2023-05-25T20:15:58.282Z,53.7
2023-05-25T20:21:16.678Z,53.5
2023-05-25T20:26:36.229Z,54.2
2023-05-25T20:31:54.974Z,53.8
2023-05-25T20:37:13.606Z,53
2023-05-25T20:42:31.911Z,53.3
2023-05-25T20:47:50.266Z,52.7
2023-05-25T20:53:08.444Z,53
2023-05-25T20:58:26.379Z,53.6
2023-05-25T21:03:44.908Z,53.9
2023-05-25T21:09:03.033Z,53.7
2023-05-25T21:14:22.627Z,53.9
2023-05-25T21:19:40.870Z,53.3
2023-05-25T21:24:59.219Z,54.2
2023-05-25T21:30:17.589Z,53.9
2023-05-25T21:35:35.797Z,53.9
2023-05-25T21:40:54.304Z,54.1
2023-05-25T21:46:12.808Z,54.1
2023-05-25T21:51:31.176Z,53.4
2023-05-25T21:56:49.735Z,53.8
2023-05-25T22:02:08.464Z,53.6
2023-05-25T22:07:26.493Z,54.4
2023-05-25T22:12:44.915Z,55.1
2023-05-25T22:18:03.558Z,54.8
2023-05-25T22:23:21.801Z,55.2
2023-05-25T22:28:39.964Z,55.1
2023-05-25T22:33:58.293Z,54.3
2023-05-25T22:39:16.654Z,54.8
2023-05-25T22:44:34.666Z,54.5
2023-05-25T22:49:53.038Z,54.9
2023-05-25T22:55:11.428Z,54.6
2023-05-25T23:00:30.131Z,54.8
2023-05-25T23:05:48.753Z,55.7
2023-05-25T23:11:07.322Z,55.2
2023-05-25T23:16:26.103Z,54.5
2023-05-25T23:21:44.286Z,55.4
2023-05-25T23:27:02.761Z,55.5
2023-05-25T23:32:21.330Z,56.1
2023-05-25T23:37:39.486Z,56.4
2023-05-25T23:42:57.636Z,55.8
2023-05-25T23:48:15.987Z,56.4
2023-05-25T23:53:34.318Z,55
2023-05-25T23:58:52.593Z,56.1
